Time;durP1;ratioP1;P1;durP2;ratioP2;P2;SDS_P1;SDS_P2;PMS_P1;PMS_P2;Temp;Humidity;BMP_temperature;BMP_pressure;BME280_temperature;BME280_humidity;BME280_pressure;Samples;Min_cycle;Max_cycle;Signal;HPM_P1;HPM_P2
2023/04/28 00:00:51;;;;;;;10.15;5.80;;;7.30;99.90;;;;;;5073963;28;20127;-90
2023/04/28 00:03:17;;;;;;;9.13;5.07;;;7.30;99.90;;;;;;5056971;28;20048;-90
2023/04/28 00:05:43;;;;;;;7.85;5.55;;;7.30;99.90;;;;;;5057048;28;20052;-88
2023/04/28 00:08:09;;;;;;;12.80;6.10;;;7.30;99.90;;;;;;5073257;28;20044;-89
2023/04/28 00:10:34;;;;;;;9.37;5.07;;;7.20;99.90;;;;;;5073470;28;20048;-89
2023/04/28 00:13:00;;;;;;;10.40;5.40;;;7.20;99.90;;;;;;5056655;28;20048;-87
2023/04/28 00:15:26;;;;;;;9.40;5.27;;;7.20;99.90;;;;;;5056993;28;20442;-90
2023/04/28 00:17:52;;;;;;;11.27;5.20;;;7.20;99.90;;;;;;5073617;28;20482;-89
2023/04/28 00:20:18;;;;;;;10.30;6.13;;;7.20;99.90;;;;;;5072967;28;20396;-88
2023/04/28 00:22:44;;;;;;;11.07;6.27;;;7.20;99.90;;;;;;5073077;28;20370;-90
2023/04/28 00:25:09;;;;;;;9.48;5.28;;;7.20;99.90;;;;;;5073015;28;20052;-89
2023/04/28 00:27:35;;;;;;;8.40;5.70;;;7.10;99.90;;;;;;5040117;28;20051;-89
2023/04/28 00:30:02;;;;;;;9.45;5.68;;;7.10;99.90;;;;;;5073369;28;20063;-86
2023/04/28 00:32:28;;;;;;;9.18;5.00;;;7.10;99.90;;;;;;5073452;28;20048;-89
2023/04/28 00:34:53;;;;;;;11.05;6.28;;;7.10;99.90;;;;;;5073203;28;20056;-89
2023/04/28 00:37:19;;;;;;;10.27;5.50;;;7.10;99.90;;;;;;5039043;28;20052;-90
2023/04/28 00:39:48;;;;;;;10.43;5.53;;;7.20;99.90;;;;;;5056411;28;20545;-89
2023/04/28 00:42:14;;;;;;;8.98;5.28;;;7.10;99.90;;;;;;5072538;28;20040;-89
2023/04/28 00:44:40;;;;;;;12.35;5.75;;;7.10;99.90;;;;;;5072912;28;20056;-89
2023/04/28 00:47:08;;;;;;;10.27;5.93;;;7.10;99.90;;;;;;5056113;28;20048;-89
2023/04/28 00:49:35;;;;;;;11.35;6.10;;;7.00;99.90;;;;;;5072928;28;20344;-89
2023/04/28 00:52:04;;;;;;;9.32;6.00;;;7.00;99.90;;;;;;5056072;28;20048;-89
2023/04/28 00:54:34;;;;;;;12.23;6.22;;;7.10;99.90;;;;;;5039439;28;20088;-88
2023/04/28 00:57:01;;;;;;;10.40;6.05;;;7.10;99.90;;;;;;5072249;28;20044;-89
2023/04/28 00:59:28;;;;;;;10.98;6.00;;;7.00;99.90;;;;;;5072250;28;20117;-88
2023/04/28 01:01:53;;;;;;;9.15;6.05;;;7.00;99.90;;;;;;5055967;28;20052;-88
2023/04/28 01:04:20;;;;;;;9.30;5.63;;;7.00;99.90;;;;;;5072173;28;20139;-88
2023/04/28 01:06:51;;;;;;;9.35;5.95;;;7.00;99.90;;;;;;5072585;28;20399;-88
2023/04/28 01:09:17;;;;;;;8.75;5.70;;;7.00;99.90;;;;;;5055177;28;20515;-89
2023/04/28 01:11:42;;;;;;;7.93;6.07;;;6.90;99.90;;;;;;5055269;28;20053;-90
2023/04/28 01:14:08;;;;;;;8.20;5.70;;;6.90;99.90;;;;;;5039107;28;20135;-90
2023/04/28 01:16:36;;;;;;;9.23;5.40;;;6.90;99.90;;;;;;5072470;28;20045;-90
2023/04/28 01:19:06;;;;;;;11.35;5.93;;;6.90;99.90;;;;;;5073302;28;20055;-89
2023/04/28 01:21:33;;;;;;;8.93;5.63;;;6.90;99.90;;;;;;5071598;28;20044;-89
2023/04/28 01:23:59;;;;;;;9.63;6.22;;;6.90;99.90;;;;;;5072071;28;20055;-89
2023/04/28 01:26:25;;;;;;;9.43;5.78;;;6.80;99.90;;;;;;5071334;28;20050;-89
2023/04/28 01:28:52;;;;;;;9.53;5.87;;;6.80;99.90;;;;;;5055602;28;20044;-89
2023/04/28 01:31:17;;;;;;;10.85;6.15;;;6.80;99.90;;;;;;5071735;28;20286;-89
2023/04/28 01:33:43;;;;;;;8.60;5.90;;;6.80;99.90;;;;;;5055486;28;20484;-89
2023/04/28 01:36:09;;;;;;;12.17;6.60;;;6.80;99.90;;;;;;5054787;28;20509;-86
2023/04/28 01:38:35;;;;;;;10.57;6.53;;;6.80;99.90;;;;;;5038693;28;20170;-89
2023/04/28 01:41:01;;;;;;;11.93;6.70;;;6.80;99.90;;;;;;5071958;28;20044;-89
2023/04/28 01:43:27;;;;;;;9.68;6.25;;;6.80;99.90;;;;;;5055178;28;20052;-89
2023/04/28 01:45:53;;;;;;;8.85;5.80;;;6.80;99.90;;;;;;5072989;28;20055;-89
2023/04/28 01:48:19;;;;;;;12.13;6.33;;;6.80;99.90;;;;;;5054881;28;20048;-88
2023/04/28 01:50:45;;;;;;;12.20;6.77;;;6.80;99.90;;;;;;5038500;28;20070;-89
2023/04/28 01:53:11;;;;;;;8.93;5.63;;;6.80;99.90;;;;;;5071536;28;20070;-88
2023/04/28 01:55:39;;;;;;;8.90;6.00;;;6.80;99.90;;;;;;5055163;28;20091;-89
2023/04/28 01:58:06;;;;;;;13.20;6.97;;;6.80;99.90;;;;;;5054880;28;20050;-88
2023/04/28 02:00:31;;;;;;;13.18;6.32;;;6.80;99.90;;;;;;5071187;28;20846;-88
2023/04/28 02:02:57;;;;;;;10.23;6.10;;;6.80;99.90;;;;;;5055329;28;20044;-88
2023/04/28 02:05:23;;;;;;;10.17;6.13;;;6.70;99.90;;;;;;5072331;28;20105;-89
2023/04/28 02:07:49;;;;;;;12.63;7.47;;;6.80;99.90;;;;;;5038182;28;20440;-88
2023/04/28 02:10:15;;;;;;;13.00;6.83;;;6.80;99.90;;;;;;5071490;28;20048;-89
2023/04/28 02:12:41;;;;;;;11.47;6.67;;;6.80;99.90;;;;;;5071901;28;20045;-90
2023/04/28 02:15:08;;;;;;;14.32;6.97;;;6.80;99.90;;;;;;5054957;28;20278;-90
2023/04/28 02:17:33;;;;;;;14.20;7.20;;;6.80;99.90;;;;;;5054300;28;20051;-90
2023/04/28 02:19:59;;;;;;;8.73;6.30;;;6.80;99.90;;;;;;5071762;28;20103;-89
2023/04/28 02:22:25;;;;;;;10.13;5.97;;;6.80;99.90;;;;;;5070947;28;20060;-89
2023/04/28 02:24:51;;;;;;;10.88;6.40;;;6.80;99.90;;;;;;5075970;28;20075;-89
2023/04/28 02:27:17;;;;;;;12.15;7.40;;;6.80;99.90;;;;;;5076512;28;20041;-88
2023/04/28 02:29:43;;;;;;;11.87;8.23;;;6.80;99.90;;;;;;5075365;28;20498;-90
2023/04/28 02:32:08;;;;;;;12.10;8.07;;;6.80;99.90;;;;;;5076552;28;20056;-89
2023/04/28 02:34:34;;;;;;;11.90;6.57;;;6.80;99.90;;;;;;5075144;28;20139;-90
2023/04/28 02:37:00;;;;;;;11.87;7.43;;;6.80;99.90;;;;;;5041852;28;20071;-90
2023/04/28 02:39:26;;;;;;;10.70;7.45;;;6.80;99.90;;;;;;5058537;28;20051;-89
2023/04/28 02:41:53;;;;;;;11.82;7.70;;;6.90;99.90;;;;;;5058762;28;20055;-90
2023/04/28 02:44:20;;;;;;;13.88;8.00;;;6.90;99.90;;;;;;5075211;28;20048;-89
2023/04/28 02:46:45;;;;;;;10.43;7.68;;;6.90;99.90;;;;;;5075526;28;20403;-89
2023/04/28 02:49:11;;;;;;;14.20;7.70;;;6.90;99.90;;;;;;5075057;28;20048;-90
2023/04/28 02:51:38;;;;;;;13.05;7.95;;;6.90;99.90;;;;;;5058177;28;20051;-89
2023/04/28 02:54:03;;;;;;;14.25;7.90;;;7.00;99.90;;;;;;5058514;28;20041;-90
2023/04/28 02:56:29;;;;;;;12.17;8.07;;;6.90;99.90;;;;;;5074646;28;20055;-89
2023/04/28 02:58:55;;;;;;;10.50;7.90;;;6.90;99.90;;;;;;5058766;28;20048;-89
2023/04/28 03:01:21;;;;;;;12.17;7.67;;;6.90;99.90;;;;;;5075567;28;20680;-89
2023/04/28 03:03:47;;;;;;;11.73;7.88;;;6.90;99.90;;;;;;5058171;28;20048;-88
2023/04/28 03:06:13;;;;;;;12.10;8.30;;;6.90;99.90;;;;;;5074593;28;20400;-89
2023/04/28 03:08:39;;;;;;;10.97;7.83;;;6.90;99.90;;;;;;5075630;28;20048;-88
2023/04/28 03:11:05;;;;;;;14.57;8.73;;;6.90;99.90;;;;;;5075068;28;20048;-88
2023/04/28 03:13:31;;;;;;;13.70;9.23;;;6.90;99.90;;;;;;5057874;28;20040;-89
2023/04/28 03:15:56;;;;;;;11.30;8.53;;;6.90;99.90;;;;;;5074583;28;20051;-88
2023/04/28 03:18:22;;;;;;;13.73;8.20;;;6.80;99.90;;;;;;5057870;28;20114;-87
2023/04/28 03:20:48;;;;;;;15.60;8.17;;;6.80;99.90;;;;;;5074426;28;20058;-89
2023/04/28 03:23:14;;;;;;;12.52;8.50;;;6.80;99.90;;;;;;5057406;28;20060;-89
2023/04/28 03:25:40;;;;;;;13.80;8.67;;;6.80;99.90;;;;;;5057561;28;20048;-88
2023/04/28 03:28:06;;;;;;;14.03;8.63;;;6.80;99.90;;;;;;5075558;28;20845;-88
2023/04/28 03:30:32;;;;;;;13.67;9.37;;;6.90;99.90;;;;;;5074087;28;20097;-89
2023/04/28 03:32:58;;;;;;;12.97;8.53;;;6.80;99.90;;;;;;5074329;28;20048;-88
2023/04/28 03:35:23;;;;;;;12.07;8.40;;;6.80;99.90;;;;;;5073362;28;20044;-87
2023/04/28 03:37:49;;;;;;;14.87;8.60;;;6.80;99.90;;;;;;5057652;28;20045;-89
2023/04/28 03:40:15;;;;;;;14.37;9.60;;;6.80;99.90;;;;;;5074889;28;20052;-90
2023/04/28 03:42:41;;;;;;;16.47;10.67;;;6.80;99.90;;;;;;5074263;28;20113;-89
2023/04/28 03:45:07;;;;;;;16.40;9.33;;;6.80;99.90;;;;;;5063734;28;20040;-89
2023/04/28 03:47:33;;;;;;;14.40;9.05;;;6.80;99.90;;;;;;5077802;28;20044;-88
2023/04/28 03:49:59;;;;;;;13.07;9.67;;;6.80;99.90;;;;;;5089634;28;20070;-89
2023/04/28 03:52:25;;;;;;;14.23;10.43;;;6.80;99.90;;;;;;5058489;28;20476;-89
2023/04/28 03:54:51;;;;;;;14.35;10.27;;;6.80;99.90;;;;;;5058731;28;20052;-89
2023/04/28 03:57:16;;;;;;;14.10;9.80;;;6.80;99.90;;;;;;5057304;28;20484;-90
2023/04/28 03:59:42;;;;;;;13.40;9.80;;;6.80;99.90;;;;;;5056919;28;20041;-90
2023/04/28 04:02:08;;;;;;;14.10;10.03;;;6.80;99.90;;;;;;5057217;28;20051;-88
2023/04/28 04:04:33;;;;;;;13.60;10.40;;;6.80;99.90;;;;;;5040091;28;20041;-89
2023/04/28 04:07:00;;;;;;;13.80;10.70;;;6.80;99.90;;;;;;5073931;28;20139;-88
2023/04/28 04:09:25;;;;;;;14.80;10.40;;;6.80;99.90;;;;;;5057103;28;20141;-88
2023/04/28 04:11:51;;;;;;;15.00;10.40;;;6.80;99.90;;;;;;5072935;28;20507;-88
2023/04/28 04:14:17;;;;;;;15.57;9.87;;;6.80;99.90;;;;;;5073606;28;20127;-88
2023/04/28 04:16:43;;;;;;;14.83;10.07;;;6.80;99.90;;;;;;5074149;28;20044;-90
2023/04/28 04:19:08;;;;;;;17.67;11.17;;;6.80;99.90;;;;;;5056791;28;20384;-89
2023/04/28 04:21:34;;;;;;;14.87;10.80;;;6.80;99.90;;;;;;5073106;28;20433;-90
2023/04/28 04:24:00;;;;;;;17.00;10.90;;;6.80;99.90;;;;;;5056895;28;20063;-90
2023/04/28 04:26:26;;;;;;;16.40;11.60;;;6.80;99.90;;;;;;5073378;28;20083;-90
2023/04/28 04:28:52;;;;;;;18.80;12.43;;;6.80;99.90;;;;;;5056385;28;20053;-90
2023/04/28 04:31:21;;;;;;;15.10;11.17;;;6.80;99.90;;;;;;5056574;28;20084;-90
2023/04/28 04:33:47;;;;;;;19.20;11.70;;;6.80;99.90;;;;;;5072996;28;20056;-89
2023/04/28 04:36:13;;;;;;;19.77;12.00;;;6.80;99.90;;;;;;5056641;28;20397;-90
2023/04/28 04:38:39;;;;;;;16.23;11.57;;;6.70;99.90;;;;;;5056061;28;20041;-89
2023/04/28 04:41:05;;;;;;;18.33;11.32;;;6.70;99.90;;;;;;5072985;28;20606;-89
2023/04/28 04:43:30;;;;;;;19.80;11.80;;;6.70;99.90;;;;;;5039944;28;20052;-88
2023/04/28 04:45:56;;;;;;;19.07;11.13;;;6.70;99.90;;;;;;5038539;28;20049;-88
2023/04/28 04:48:22;;;;;;;14.73;11.70;;;6.70;99.90;;;;;;5072704;28;20055;-90
2023/04/28 04:50:48;;;;;;;14.30;10.60;;;6.70;99.90;;;;;;5072771;28;20053;-90
2023/04/28 04:53:14;;;;;;;18.55;11.52;;;6.70;99.90;;;;;;5056216;28;20121;-89
2023/04/28 04:55:39;;;;;;;17.27;12.23;;;6.70;99.90;;;;;;5072470;28;20135;-90
2023/04/28 04:58:05;;;;;;;14.47;11.07;;;6.70;99.90;;;;;;5073042;28;20094;-89
2023/04/28 05:00:31;;;;;;;16.40;11.70;;;6.70;99.90;;;;;;5055937;28;20080;-89
2023/04/28 05:02:56;;;;;;;16.90;11.50;;;6.70;99.90;;;;;;5055767;28;20055;-89
2023/04/28 05:05:22;;;;;;;19.10;11.77;;;6.70;99.90;;;;;;5055927;28;20045;-88
2023/04/28 05:07:48;;;;;;;21.70;12.57;;;6.70;99.90;;;;;;5072360;28;20102;-88
2023/04/28 05:10:14;;;;;;;17.30;12.87;;;6.70;99.90;;;;;;5072521;28;20080;-89
2023/04/28 05:12:39;;;;;;;16.50;12.03;;;6.70;99.90;;;;;;5055389;28;20049;-89
2023/04/28 05:15:06;;;;;;;18.10;12.03;;;6.80;99.90;;;;;;5055677;28;20044;-89
2023/04/28 05:17:33;;;;;;;18.17;11.93;;;6.80;99.90;;;;;;5071976;28;20080;-89
2023/04/28 05:19:58;;;;;;;18.35;12.10;;;6.80;99.90;;;;;;5072108;28;20075;-89
2023/04/28 05:22:25;;;;;;;17.00;11.83;;;6.80;99.90;;;;;;5055617;28;20060;-89
2023/04/28 05:24:52;;;;;;;16.33;12.25;;;6.80;99.90;;;;;;5038820;28;20495;-89
2023/04/28 05:27:18;;;;;;;18.55;12.55;;;6.90;99.90;;;;;;5055770;28;20088;-88
2023/04/28 05:29:44;;;;;;;18.88;12.50;;;6.90;99.90;;;;;;5071879;28;20055;-88
2023/04/28 05:32:10;;;;;;;17.03;11.67;;;7.00;99.90;;;;;;5055290;28;20048;-89
2023/04/28 05:34:35;;;;;;;16.73;12.03;;;7.00;99.90;;;;;;5073265;28;20558;-88
2023/04/28 05:37:01;;;;;;;16.50;11.00;;;6.90;99.90;;;;;;5071690;28;20056;-88
2023/04/28 05:39:27;;;;;;;18.03;12.03;;;6.90;99.90;;;;;;5038940;28;20055;-88
2023/04/28 05:41:53;;;;;;;17.90;12.37;;;6.90;99.90;;;;;;5055031;28;20059;-89
2023/04/28 05:44:18;;;;;;;17.23;12.00;;;7.00;99.90;;;;;;5071661;28;20045;-89
2023/04/28 05:46:44;;;;;;;19.83;12.40;;;6.90;99.90;;;;;;5071572;28;20044;-91
2023/04/28 05:49:10;;;;;;;17.83;12.70;;;7.00;99.90;;;;;;5072231;28;20119;-89
2023/04/28 05:51:37;;;;;;;18.53;11.83;;;7.00;99.90;;;;;;5072068;28;20060;-88
2023/04/28 05:54:03;;;;;;;17.45;12.00;;;7.00;99.90;;;;;;5071594;28;20287;-89
2023/04/28 05:56:29;;;;;;;17.73;12.97;;;7.00;99.90;;;;;;5071855;28;20044;-89
2023/04/28 05:58:55;;;;;;;17.50;12.47;;;7.10;99.90;;;;;;5054482;28;20059;-88
2023/04/28 06:01:21;;;;;;;17.15;12.30;;;7.10;99.90;;;;;;5054858;28;20295;-89
2023/04/28 06:03:47;;;;;;;16.58;11.88;;;7.10;99.90;;;;;;5071518;28;20052;-89
2023/04/28 06:06:13;;;;;;;15.47;10.80;;;7.10;99.90;;;;;;5038700;28;20484;-89
2023/04/28 06:08:39;;;;;;;16.43;11.40;;;7.10;99.90;;;;;;5055214;28;20056;-89
2023/04/28 06:11:05;;;;;;;19.63;12.50;;;7.10;99.90;;;;;;5071317;28;20519;-88
2023/04/28 06:13:31;;;;;;;20.48;12.82;;;7.20;99.90;;;;;;5071934;28;20040;-89
2023/04/28 06:15:57;;;;;;;16.77;12.13;;;7.20;99.90;;;;;;5071072;28;20139;-90
2023/04/28 06:18:23;;;;;;;17.53;11.77;;;7.20;99.90;;;;;;5071599;28;20056;-90
2023/04/28 06:20:49;;;;;;;17.92;12.18;;;7.30;99.90;;;;;;5054796;28;20048;-90
2023/04/28 06:23:15;;;;;;;16.88;11.70;;;7.40;99.90;;;;;;5071417;28;20127;-90
2023/04/28 06:25:41;;;;;;;16.97;11.93;;;7.40;99.90;;;;;;5072767;28;20052;-89
2023/04/28 06:28:06;;;;;;;17.83;12.30;;;7.40;99.90;;;;;;5054548;28;20067;-89
2023/04/28 06:30:33;;;;;;;15.57;10.83;;;7.40;99.90;;;;;;5054694;28;20127;-90
2023/04/28 06:32:59;;;;;;;17.70;10.68;;;7.50;99.90;;;;;;5072301;28;20045;-90
2023/04/28 06:35:25;;;;;;;17.17;11.77;;;7.50;99.90;;;;;;5072397;28;20048;-89
2023/04/28 06:37:51;;;;;;;17.73;11.93;;;7.50;99.90;;;;;;5072125;28;20384;-91
2023/04/28 06:40:17;;;;;;;20.83;11.67;;;7.60;99.90;;;;;;5072857;28;20404;-90
2023/04/28 06:42:42;;;;;;;20.93;12.10;;;7.60;99.90;;;;;;5055376;28;20055;-90
2023/04/28 06:45:08;;;;;;;15.37;10.97;;;7.60;99.90;;;;;;5070987;28;20044;-91
2023/04/28 06:47:36;;;;;;;18.13;11.30;;;7.70;99.90;;;;;;5071911;28;20041;-90
2023/04/28 06:50:02;;;;;;;15.20;11.23;;;7.70;99.90;;;;;;5071285;28;20121;-90
2023/04/28 06:52:29;;;;;;;16.13;11.90;;;7.80;99.90;;;;;;5072199;28;20445;-89
2023/04/28 06:54:55;;;;;;;14.60;10.32;;;7.80;99.90;;;;;;5071023;28;20122;-86
2023/04/28 06:57:21;;;;;;;15.03;10.43;;;7.80;99.90;;;;;;5071341;28;20055;-89
2023/04/28 06:59:47;;;;;;;15.35;11.40;;;7.80;99.90;;;;;;5071739;28;20064;-87
2023/04/28 07:02:13;;;;;;;17.20;11.27;;;7.80;99.90;;;;;;5054402;28;20048;-89
2023/04/28 07:04:38;;;;;;;14.45;11.20;;;7.90;99.90;;;;;;5072273;28;20040;-84
2023/04/28 07:07:08;;;;;;;15.10;10.73;;;7.90;99.90;;;;;;5070452;28;20098;-84
2023/04/28 07:09:35;;;;;;;17.35;11.13;;;7.90;99.90;;;;;;5072133;28;20455;-83
2023/04/28 07:12:00;;;;;;;20.20;10.70;;;8.00;99.90;;;;;;5075359;28;20091;-83
2023/04/28 07:14:26;;;;;;;16.20;11.53;;;8.00;99.90;;;;;;5075590;28;20504;-82
2023/04/28 07:16:52;;;;;;;17.17;11.20;;;8.10;99.90;;;;;;5074147;28;20173;-82
2023/04/28 07:19:17;;;;;;;15.30;10.50;;;8.20;99.90;;;;;;5075652;28;20127;-84
2023/04/28 07:21:43;;;;;;;16.63;10.60;;;8.40;99.90;;;;;;5075267;28;20488;-82
2023/04/28 07:24:09;;;;;;;13.18;10.68;;;8.60;99.90;;;;;;5073937;28;20484;-83
2023/04/28 07:26:35;;;;;;;15.90;10.67;;;8.90;99.90;;;;;;5075385;28;20048;-83
2023/04/28 07:29:01;;;;;;;16.23;10.80;;;9.00;99.90;;;;;;5074843;28;20174;-83
2023/04/28 07:31:27;;;;;;;18.93;10.50;;;9.00;99.90;;;;;;5075463;28;20044;-85
2023/04/28 07:33:54;;;;;;;16.02;10.38;;;9.00;99.90;;;;;;5073996;28;20052;-83
2023/04/28 07:36:20;;;;;;;16.17;10.55;;;8.90;99.90;;;;;;5074139;28;20541;-84
2023/04/28 07:38:45;;;;;;;15.48;10.85;;;8.80;99.90;;;;;;5075207;28;20136;-83
2023/04/28 07:41:11;;;;;;;16.57;9.90;;;8.70;99.90;;;;;;5074878;28;20561;-82
2023/04/28 07:43:38;;;;;;;16.25;10.55;;;8.70;99.90;;;;;;5074002;28;20443;-85
2023/04/28 07:46:05;;;;;;;16.55;10.65;;;8.60;99.90;;;;;;5074922;28;20105;-85
2023/04/28 07:48:31;;;;;;;18.63;11.30;;;8.60;99.90;;;;;;5075147;28;20106;-85
2023/04/28 07:50:57;;;;;;;17.48;11.65;;;8.60;99.90;;;;;;5073782;28;20496;-83
2023/04/28 07:53:22;;;;;;;18.40;11.20;;;8.50;99.90;;;;;;5075135;28;20075;-84
2023/04/28 07:55:48;;;;;;;16.40;11.93;;;8.40;99.90;;;;;;5074692;28;20076;-81
2023/04/28 07:58:14;;;;;;;18.37;12.63;;;8.30;99.90;;;;;;5074425;28;20048;-79
2023/04/28 08:00:40;;;;;;;16.07;11.77;;;8.30;99.90;;;;;;5074952;28;20044;-81
2023/04/28 08:03:05;;;;;;;17.97;12.83;;;8.20;99.90;;;;;;5057044;28;20063;-80
2023/04/28 08:05:31;;;;;;;16.43;12.27;;;8.20;99.90;;;;;;5074074;28;20415;-80
2023/04/28 08:07:58;;;;;;;23.27;13.20;;;8.10;99.90;;;;;;5074344;28;20085;-81
2023/04/28 08:10:25;;;;;;;20.25;13.13;;;8.10;99.90;;;;;;5074542;28;20051;-81
2023/04/28 08:12:51;;;;;;;20.98;14.32;;;8.10;99.90;;;;;;5074479;28;20051;-81
2023/04/28 08:15:18;;;;;;;22.10;14.20;;;8.10;99.90;;;;;;5074204;28;20489;-81
2023/04/28 08:17:44;;;;;;;20.48;13.02;;;8.10;99.90;;;;;;5074036;28;20115;-82
2023/04/28 08:20:10;;;;;;;22.67;13.60;;;8.20;99.90;;;;;;5055938;28;20123;-82
2023/04/28 08:22:35;;;;;;;16.95;12.70;;;8.20;99.90;;;;;;5070942;28;20139;-82
2023/04/28 08:25:01;;;;;;;21.63;13.77;;;8.30;99.90;;;;;;5073566;28;20134;-82
2023/04/28 08:27:27;;;;;;;18.30;13.70;;;8.40;99.90;;;;;;5073764;28;20163;-81
2023/04/28 08:29:53;;;;;;;17.53;13.90;;;8.50;99.90;;;;;;5073903;28;20048;-81
2023/04/28 08:32:18;;;;;;;17.87;12.80;;;8.60;99.90;;;;;;5072890;28;20050;-81
2023/04/28 08:34:44;;;;;;;19.63;13.40;;;8.70;99.90;;;;;;5073264;28;20174;-79
2023/04/28 08:37:10;;;;;;;18.03;12.97;;;8.80;99.90;;;;;;5070588;28;20040;-80
2023/04/28 08:39:36;;;;;;;19.53;13.20;;;9.00;99.90;;;;;;5073593;28;20072;-80
2023/04/28 08:42:04;;;;;;;20.30;13.27;;;9.10;99.90;;;;;;5073059;28;20044;-82
2023/04/28 08:44:39;;;;;;;18.45;12.77;;;9.20;99.90;;;;;;5071004;28;20040;-82
2023/04/28 08:47:15;;;;;;;21.10;13.73;;;9.30;99.90;;;;;;5073577;28;20051;-82
2023/04/28 08:49:42;;;;;;;15.70;11.88;;;9.30;99.90;;;;;;5073515;28;20045;-82
2023/04/28 08:52:15;;;;;;;19.02;13.13;;;9.30;99.90;;;;;;5072133;28;20119;-82
2023/04/28 08:54:42;;;;;;;17.65;12.75;;;9.30;99.90;;;;;;5073573;28;20063;-82
2023/04/28 08:57:09;;;;;;;17.63;12.60;;;9.30;99.90;;;;;;5072787;28;20494;-82
2023/04/28 08:59:39;;;;;;;21.75;12.65;;;9.30;99.90;;;;;;5073405;28;20088;-83
2023/04/28 09:02:06;;;;;;;18.98;13.30;;;9.30;99.90;;;;;;5072804;28;20052;-85
2023/04/28 09:04:31;;;;;;;19.77;12.90;;;9.30;99.90;;;;;;5070556;28;20067;-78
2023/04/28 09:06:57;;;;;;;19.57;13.10;;;9.40;99.90;;;;;;5072897;28;20033;-86
2023/04/28 09:09:30;;;;;;;16.97;12.90;;;9.50;99.90;;;;;;5071992;28;20045;-88
2023/04/28 09:12:00;;;;;;;20.20;13.05;;;9.70;99.90;;;;;;5070916;28;20041;-88
2023/04/28 09:14:29;;;;;;;23.08;13.52;;;9.90;99.90;;;;;;5072732;28;20059;-86
2023/04/28 09:16:56;;;;;;;18.93;12.97;;;10.00;99.90;;;;;;5073204;28;20079;-85
2023/04/28 09:19:23;;;;;;;16.70;11.67;;;10.10;99.90;;;;;;5071768;28;20847;-82
2023/04/28 09:21:52;;;;;;;18.92;12.25;;;10.10;99.90;;;;;;5072309;28;20331;-86
2023/04/28 09:24:35;;;;;;;16.03;12.33;;;10.20;99.90;;;;;;5073314;28;20049;-83
2023/04/28 09:27:03;;;;;;;16.13;11.30;;;10.40;99.90;;;;;;5073459;28;20332;-83
2023/04/28 09:29:30;;;;;;;16.20;11.70;;;10.60;99.90;;;;;;5071827;28;20290;-79
2023/04/28 09:32:22;;;;;;;17.00;11.43;;;10.70;99.90;;;;;;5071547;28;20317;-84
2023/04/28 09:34:52;;;;;;;17.87;11.33;;;10.80;99.90;;;;;;5072271;28;20374;-86
2023/04/28 09:37:21;;;;;;;16.20;11.80;;;10.80;99.90;;;;;;5072918;28;20352;-80
2023/04/28 09:39:49;;;;;;;14.60;11.20;;;10.90;99.90;;;;;;5072709;28;20312;-79
2023/04/28 09:42:35;;;;;;;17.23;12.20;;;10.80;99.90;;;;;;5071808;28;20386;-79
2023/04/28 09:45:14;;;;;;;17.43;12.13;;;10.80;99.90;;;;;;5073171;28;20279;-84
2023/04/28 09:47:46;;;;;;;15.90;10.97;;;10.80;99.90;;;;;;5055443;28;20370;-81
2023/04/28 09:50:14;;;;;;;16.13;10.80;;;10.80;99.90;;;;;;5072832;28;20699;-81
2023/04/28 09:52:41;;;;;;;17.43;11.73;;;10.80;99.90;;;;;;5072946;28;20374;-82
2023/04/28 09:55:07;;;;;;;16.43;11.57;;;11.00;99.90;;;;;;5071694;28;20344;-87
2023/04/28 09:57:35;;;;;;;16.40;10.97;;;11.10;99.90;;;;;;5072631;28;20302;-86
2023/04/28 10:00:05;;;;;;;14.67;10.93;;;11.30;99.90;;;;;;5071883;28;20290;-85
2023/04/28 10:02:31;;;;;;;16.50;10.70;;;11.40;99.90;;;;;;5071163;28;20848;-78
2023/04/28 10:04:57;;;;;;;16.93;11.20;;;11.40;99.90;;;;;;5072857;28;20337;-88
2023/04/28 10:07:23;;;;;;;14.90;11.43;;;11.50;99.90;;;;;;5072392;28;20310;-87
2023/04/28 10:09:50;;;;;;;15.17;10.53;;;11.60;99.90;;;;;;5072826;28;20059;-83
2023/04/28 10:12:21;;;;;;;16.67;10.47;;;11.70;99.90;;;;;;5072535;28;20049;-85
2023/04/28 10:14:54;;;;;;;14.63;10.57;;;11.70;99.90;;;;;;5072751;28;20641;-87
2023/04/28 10:17:21;;;;;;;14.83;11.10;;;11.70;99.90;;;;;;5072340;28;20302;-87
2023/04/28 10:19:51;;;;;;;19.20;11.53;;;11.80;99.90;;;;;;5072246;28;20374;-87
2023/04/28 10:22:35;;;;;;;16.20;11.63;;;11.80;99.90;;;;;;5070375;28;20298;-79
2023/04/28 10:25:07;;;;;;;15.33;10.67;;;11.90;99.90;;;;;;5071266;28;20370;-85
2023/04/28 10:27:34;;;;;;;18.37;11.27;;;11.90;99.90;;;;;;5068938;28;20291;-86
2023/04/28 10:30:10;;;;;;;16.20;11.37;;;11.90;99.90;;;;;;5072229;28;20278;-86
2023/04/28 10:32:36;;;;;;;16.57;11.67;;;11.90;99.90;;;;;;5071158;28;20298;-86
2023/04/28 10:35:23;;;;;;;14.73;11.83;;;11.90;99.90;;;;;;5072567;28;20291;-86
2023/04/28 10:38:05;;;;;;;17.33;12.43;;;11.90;99.90;;;;;;5072334;28;20306;-78
2023/04/28 10:40:34;;;;;;;15.20;10.87;;;11.90;99.90;;;;;;5071144;28;20665;-86
2023/04/28 10:43:00;;;;;;;14.93;10.20;;;11.90;99.90;;;;;;5072192;28;20294;-84
2023/04/28 10:45:47;;;;;;;16.53;10.63;;;11.90;99.90;;;;;;5074689;28;20676;-85
2023/04/28 10:48:43;;;;;;;19.60;11.30;;;12.00;99.90;;;;;;5076277;28;20374;-86
2023/04/28 10:51:15;;;;;;;13.82;9.95;;;12.00;99.90;;;;;;5059896;28;20370;-85
2023/04/28 10:53:44;;;;;;;13.00;9.87;;;12.00;99.90;;;;;;5075984;28;20055;-85
2023/04/28 10:56:14;;;;;;;15.13;10.00;;;12.00;99.90;;;;;;5075897;28;20763;-85
2023/04/28 10:58:41;;;;;;;11.83;9.63;;;12.10;99.90;;;;;;5075895;28;20279;-87
2023/04/28 11:01:19;;;;;;;13.97;9.53;;;12.10;99.90;;;;;;5076026;28;20340;-87
2023/04/28 11:04:06;;;;;;;17.87;10.63;;;12.10;99.90;;;;;;5075996;28;20298;-77
2023/04/28 11:06:36;;;;;;;14.50;9.77;;;12.10;99.90;;;;;;5074564;28;20287;-81
2023/04/28 11:09:23;;;;;;;13.00;9.23;;;12.20;99.90;;;;;;5074857;28;20295;-81
2023/04/28 11:12:05;;;;;;;12.80;9.33;;;12.20;99.90;;;;;;5075588;28;20287;-83
2023/04/28 11:14:33;;;;;;;13.77;9.77;;;12.30;99.90;;;;;;5075762;28;20611;-83
2023/04/28 11:17:05;;;;;;;13.23;9.60;;;12.40;99.90;;;;;;5075345;28;20778;-82
2023/04/28 11:19:31;;;;;;;13.40;8.90;;;12.40;99.90;;;;;;5075333;28;20303;-82
2023/04/28 11:21:59;;;;;;;12.87;9.80;;;;;;;;;;5075572;28;20293;-86
2023/04/28 11:24:29;;;;;;;11.63;9.17;;;12.40;99.90;;;;;;5075084;28;20290;-82
2023/04/28 11:26:59;;;;;;;11.43;9.63;;;12.50;99.90;;;;;;5075521;28;20344;-84
2023/04/28 11:29:32;;;;;;;13.43;9.70;;;12.50;99.90;;;;;;5075282;28;20291;-82
2023/04/28 11:31:58;;;;;;;11.83;9.23;;;12.50;99.90;;;;;;5075439;28;20298;-83
2023/04/28 11:34:24;;;;;;;15.13;9.63;;;12.50;99.90;;;;;;5075026;28;20290;-84
2023/04/28 11:36:50;;;;;;;13.23;9.57;;;12.50;99.90;;;;;;5071151;28;20302;-77
2023/04/28 11:39:24;;;;;;;16.90;9.40;;;12.50;99.90;;;;;;5063725;28;20141;-82
2023/04/28 11:41:49;;;;;;;11.47;9.23;;;12.50;99.90;;;;;;5074012;28;20291;-82
2023/04/28 11:44:17;;;;;;;13.53;9.07;;;12.50;99.90;;;;;;5073015;28;20290;-80
2023/04/28 11:46:46;;;;;;;14.27;9.27;;;12.40;99.90;;;;;;5071583;28;20040;-79
2023/04/28 11:49:13;;;;;;;13.43;9.83;;;12.40;99.90;;;;;;5073922;28;20365;-80
2023/04/28 11:51:41;;;;;;;15.80;10.00;;;12.40;99.90;;;;;;5071882;28;20685;-79
2023/04/28 11:54:10;;;;;;;16.13;10.37;;;12.40;99.90;;;;;;5071905;28;20295;-78
2023/04/28 11:56:40;;;;;;;14.33;9.73;;;12.30;99.90;;;;;;5071295;28;20628;-78
2023/04/28 11:59:10;;;;;;;13.27;10.43;;;12.30;99.90;;;;;;5073323;28;20278;-78
2023/04/28 12:01:51;;;;;;;12.80;10.57;;;12.30;99.90;;;;;;5073185;28;20283;-78
2023/04/28 12:04:28;;;;;;;13.40;10.07;;;12.30;99.90;;;;;;5071245;28;20291;-80
2023/04/28 12:07:15;;;;;;;15.83;10.30;;;12.30;99.90;;;;;;5071948;28;20321;-79
2023/04/28 12:09:43;;;;;;;15.70;10.57;;;12.30;99.90;;;;;;5072241;28;20485;-80
2023/04/28 12:12:12;;;;;;;14.77;10.83;;;12.40;99.90;;;;;;5073180;28;20373;-78
2023/04/28 12:15:01;;;;;;;15.67;11.00;;;12.50;99.90;;;;;;5072131;28;20278;-78
2023/04/28 12:17:30;;;;;;;17.67;10.10;;;12.60;99.90;;;;;;5071598;28;20315;-77
2023/04/28 12:19:58;;;;;;;13.97;10.47;;;12.80;99.90;;;;;;5072188;28;20291;-78
2023/04/28 12:22:24;;;;;;;13.37;9.97;;;12.90;99.90;;;;;;5072670;28;20342;-77
2023/04/28 12:25:08;;;;;;;11.83;10.27;;;13.10;99.90;;;;;;5072606;28;20282;-78
2023/04/28 12:27:37;;;;;;;16.77;10.90;;;13.20;99.90;;;;;;5071588;28;20329;-81
2023/04/28 12:30:23;;;;;;;13.10;9.70;;;13.30;99.90;;;;;;5072970;28;20286;-76
2023/04/28 12:32:50;;;;;;;15.73;11.37;;;13.20;99.90;;;;;;5072775;28;20275;-85
2023/04/28 12:35:16;;;;;;;14.80;10.97;;;13.20;99.90;;;;;;5071354;28;20389;-82
2023/04/28 12:37:42;;;;;;;15.50;10.67;;;13.10;99.90;;;;;;5070553;28;20437;-84
2023/04/28 12:40:09;;;;;;;13.67;10.17;;;13.00;99.90;;;;;;5072929;28;20047;-83